»·PEaware :: QXE130 KBZN-KJAC

QXE130 :: KBZN-KJAC

FLIGHT INFORMATION

Flight Status: Arrived
Operator:
Horizon Air
More flights by this operator :: More flights under this callsign
Pilot: David J. (24489)
Aircraft: Unknown
(DHC8)
More flights by this aircraft type
Origin: KBZN Gallatin
United States
Destination: KJAC Jackson Hole
United States
More flights between these airports :: More routes between these airports
Route: TEERX4 DBS
File this flight plan on PilotEdge
Remarks: RMK / SIMBRIEF
Altitude:
(Current/Filed)
22,000ft
Speed:
(Current/Filed)
325kts
Departed: 08-Aug-20 09:04 PM
Arrived: 08-Aug-20 09:40 PM
Distance/Time
Traveled:
132nm/0:35
Distance/Time
To Go:
Arrived

Flight Plot

Page will automatically refresh every two minutes.

Flight plan parsing failed; only flown route is shown


Map Options




Map Legend


Flown Route
Filed Route
Departure Airport
Arrival Airport
Navaid (VOR, NDB)
Fix

Horizontal Profiles

Position Reports

Time Latitude Longitude Heading Altitude Ground
Speed
08-Aug-20 20:33 45.778529 -111.159982 231 4478ft 0kts
08-Aug-20 20:34 45.778529 -111.159982 231 4478ft 0kts
08-Aug-20 20:35 45.778529 -111.159982 231 4478ft 0kts
08-Aug-20 20:36 45.778530 -111.159981 231 4478ft 0kts
08-Aug-20 20:37 45.778530 -111.159981 231 4478ft 0kts
08-Aug-20 20:38 45.778530 -111.159981 231 4478ft 0kts
08-Aug-20 20:39 45.778530 -111.159981 231 4478ft 0kts
08-Aug-20 20:40 45.778530 -111.159981 231 4478ft 0kts
08-Aug-20 20:41 45.778530 -111.159981 231 4478ft 0kts
08-Aug-20 20:42 45.778530 -111.159981 231 4478ft 0kts
08-Aug-20 20:43 45.778530 -111.159981 231 4478ft 0kts
08-Aug-20 20:44 45.778530 -111.159981 231 4478ft 0kts
08-Aug-20 20:45 45.778530 -111.159981 231 4478ft 0kts
08-Aug-20 20:46 45.778530 -111.159981 231 4478ft 0kts
08-Aug-20 20:47 45.778530 -111.159981 231 4478ft 0kts
08-Aug-20 20:48 45.778530 -111.159981 231 4478ft 0kts
08-Aug-20 20:49 45.778530 -111.159981 231 4478ft 0kts
08-Aug-20 20:50 45.778530 -111.159981 231 4478ft 0kts
08-Aug-20 20:51 45.778530 -111.159981 231 4478ft 0kts
08-Aug-20 20:52 45.778530 -111.159981 231 4478ft 0kts
08-Aug-20 20:53 45.778530 -111.159981 231 4478ft 0kts
08-Aug-20 20:54 45.778530 -111.159981 231 4478ft 0kts
08-Aug-20 20:55 45.778778 -111.159932 124 4478ft 2kts
08-Aug-20 20:56 45.778817 -111.160060 96 4478ft 0kts
08-Aug-20 20:57 45.778817 -111.160060 96 4478ft 0kts
08-Aug-20 20:58 45.778825 -111.160019 78 4478ft 1kts
08-Aug-20 20:59 45.780540 -111.160156 314 4478ft 0kts
08-Aug-20 21:00 45.784110 -111.165099 315 4478ft 28kts
08-Aug-20 21:01 45.787298 -111.167458 48 4478ft 0kts
08-Aug-20 21:02 45.787059 -111.165085 135 4478ft 15kts
08-Aug-20 21:03 45.765096 -111.133049 130 5033ft 163kts
08-Aug-20 21:04 45.726286 -111.150740 232 7131ft 172kts
08-Aug-20 21:05 45.702328 -111.217189 266 8587ft 201kts
08-Aug-20 21:06 45.708047 -111.299389 278 10235ft 218kts
08-Aug-20 21:07 45.718388 -111.386560 272 12157ft 219kts
08-Aug-20 21:08 45.688870 -111.449851 200 13909ft 229kts
08-Aug-20 21:09 45.627493 -111.478850 202 15492ft 235kts
08-Aug-20 21:10 45.561488 -111.510789 201 16065ft 270kts
08-Aug-20 21:11 45.488483 -111.545418 202 16967ft 270kts
08-Aug-20 21:12 45.417351 -111.579702 203 17773ft 270kts
08-Aug-20 21:13 45.345773 -111.614258 203 18567ft 274kts
08-Aug-20 21:14 45.272741 -111.649699 203 19273ft 279kts
08-Aug-20 21:15 45.199131 -111.685172 203 20107ft 276kts
08-Aug-20 21:16 45.125298 -111.710501 171 20950ft 292kts
08-Aug-20 21:17 45.049664 -111.661927 159 21619ft 301kts
08-Aug-20 21:18 44.972982 -111.611591 159 22125ft 309kts
08-Aug-20 21:19 44.892708 -111.559234 159 22185ft 327kts
08-Aug-20 21:20 44.809537 -111.501791 157 22199ft 339kts
08-Aug-20 21:21 44.723209 -111.445164 159 21913ft 353kts
08-Aug-20 21:22 44.633617 -111.387335 159 20898ft 355kts
08-Aug-20 21:23 44.544085 -111.329469 159 19786ft 361kts
08-Aug-20 21:24 44.451394 -111.269955 159 18283ft 367kts
08-Aug-20 21:25 44.359307 -111.210804 158 16778ft 361kts
08-Aug-20 21:26 44.291057 -111.107486 131 15276ft 360kts
08-Aug-20 21:27 44.230437 -111.001103 131 14100ft 338kts
08-Aug-20 21:29 44.173099 -110.900275 132 13448ft 344kts
08-Aug-20 21:30 44.113637 -110.796233 132 12092ft 326kts
08-Aug-20 21:31 44.064853 -110.708589 131 12017ft 283kts
08-Aug-20 21:32 44.015072 -110.618673 131 12027ft 290kts
08-Aug-20 21:33 43.957750 -110.543561 175 12029ft 272kts
08-Aug-20 21:34 43.888827 -110.565851 201 11925ft 251kts
08-Aug-20 21:35 43.826373 -110.608797 217 10636ft 237kts
08-Aug-20 21:36 43.772842 -110.656318 207 9710ft 226kts
08-Aug-20 21:37 43.716682 -110.682931 200 8644ft 198kts
08-Aug-20 21:38 43.670906 -110.706476 199 7526ft 167kts
08-Aug-20 21:39 43.629299 -110.726801 201 6764ft 150kts
08-Aug-20 21:40 43.601683 -110.740451 201 6458ft 27kts
08-Aug-20 21:41 43.599496 -110.740383 90 6458ft 0kts
08-Aug-20 21:42 43.599862 -110.739808 20 6458ft 6kts
08-Aug-20 21:43 43.602368 -110.738557 18 6458ft 9kts
08-Aug-20 21:44 43.602735 -110.737511 109 6458ft 0kts
08-Aug-20 21:45 43.602735 -110.737512 109 6458ft 0kts
08-Aug-20 21:46 43.602735 -110.737512 109 6458ft 0kts
08-Aug-20 21:47 43.602735 -110.737512 109 6458ft 0kts
08-Aug-20 21:48 43.602735 -110.737512 109 6458ft 0kts
08-Aug-20 21:48 43.602735 -110.737512 109 6458ft 0kts
08-Aug-20 21:50 43.602735 -110.737512 109 6458ft 0kts
08-Aug-20 21:50 43.602735 -110.737512 109 6458ft 0kts
08-Aug-20 21:52 43.602735 -110.737512 109 6458ft 0kts

Navigation Log

Ident Type
Flight plan parsing failed, navigation log unavailable